Spurfield, Canada
Current Conditions -  °F | °C
As of 9:08 PM on Sunday 21 Dec 2014 (Local Time) from CYZH Reporting Station
Light Snow Light Snow  
Wind Chill: 17°   Ceiling: 5000
Heat Index: 23°   Visibility: 5mi
Dew Point: 23°   Wind: 5mph
Humidity: 100%   Direction: 340°NNW
Pressure: 29.57"   Gusts: NA
Location:  55.23°N, 114.25°W
Report Text: CYZH 220408Z AUTO 34004KT 5SM -SN OVC050 M05/M05 A2957 RMK SLP049
Loading
Personal Weather Stations






























Interactive Weather Map New forecast layout! Learn more

10-Day Weather Forecast

Advertisements
Track Severe Weather on mobile